Terminal Aerodrome Forecast
Issued by NWS

Home | Current Version | Previous Version | Text Only | Print | Product List | Glossary On
Versions: 1 2 3 4 5 6 7 8 9 10 11 12 13 14 15 16
000
FTUS46 KMTR 192342
TAFSNS
TAF
KSNS 192342Z 2000/2024 26013G19KT P6SM FEW024 FEW045
     FM200200 28007KT P6SM OVC007
      TEMPO 2006/2010 4SM -RA BR OVC009
     FM201000 24005KT P6SM BKN010 OVC020
     FM201700 27005KT P6SM FEW012 SCT025 SCT040
     FM202100 27016G22KT P6SM SKC=

USA.gov is the U.S. government's official web portal to all federal, state and local government web resources and services.